This is the latest recevied weather packets stored in our database for station/object KB1LTW-13. If no packets are shown the sender has not sent any weather packets the latest 10 day(s).
| Time | Temp. | Humidity | Pressure | Rain* | Wind** | Luminosity | Snow |
|---|---|---|---|---|---|---|---|
| 1777563695 | 9.44° C | 97% | 1009.3 hPa | 0 mm | - | 112 W/m² | - |
| 1777561885 | 8.89° C | 97% | 1009.4 hPa | 0 mm | - | 62 W/m² | - |
| 1777560696 | 8.89° C | 97% | 1009.4 hPa | 0 mm | - | 64 W/m² | - |
| 1777554676 | 8.33° C | 98% | 1009.5 hPa | 0 mm | - | 36 W/m² | - |
| 1777554077 | 7.78° C | 98% | 1009.4 hPa | 0 mm | - | 41 W/m² | - |
| 1777551077 | 7.78° C | 98% | 1009.7 hPa | 0 mm | - | 38 W/m² | - |
| 1777549276 | 7.78° C | 98% | 1010 hPa | 0 mm | - | 28 W/m² | - |
| 1777548675 | 7.78° C | 98% | 1010.1 hPa | 0 mm | - | 30 W/m² | - |
| 1777547484 | 7.78° C | 98% | 1010.1 hPa | 0 mm | - | 19 W/m² | - |
| 1777546919 | 7.78° C | 98% | 1009.9 hPa | 0 mm | - | 10 W/m² | - |
| 1777541483 | 7.78° C | 97% | 1009.9 hPa | 0 mm | - | 0 W/m² | - |
| 1777540891 | 7.78° C | 97% | 1009.8 hPa | 0 mm | - | 0 W/m² | - |
| 1777537878 | 7.78° C | 97% | 1010.4 hPa | 0 mm | - | 0 W/m² | - |
| 1777535476 | 7.78° C | 97% | 1010.8 hPa | 0 mm | - | 0 W/m² | - |
| 1777532485 | 7.78° C | 96% | 1010.9 hPa | 0 mm | - | 0 W/m² | - |
| 1777531284 | 7.78° C | 96% | 1011 hPa | 0 mm | - | 0 W/m² | - |
| 1777524075 | 8.89° C | 89% | 1012.3 hPa | 0 mm | - | 0 W/m² | - |
| 1777515676 | 11.11° C | 74% | 1013.1 hPa | 0 mm | - | 0 W/m² | - |
| 1777514478 | 11.11° C | 73% | 1013.2 hPa | 0 mm | - | 0 W/m² | - |
| 1777507279 | 12.78° C | 64% | 1013.1 hPa | 0 mm | - | 0 W/m² | - |
| 1777497092 | 16.11° C | 54% | 1014 hPa | 0 mm | - | 100 W/m² | - |
| 1777495305 | 16.67° C | 52% | 1014.1 hPa | 0 mm | - | 148 W/m² | - |
| 1777486278 | 17.78° C | 49% | 1015.5 hPa | 0 mm | - | 370 W/m² | - |
| 1777483877 | 17.78° C | 48% | 1016.3 hPa | 0 mm | - | 480 W/m² | - |
| 1777476079 | 15° C | 53% | 1017 hPa | 0 mm | - | 738 W/m² | - |
* Rain latest hour (hover to see other rain measurements)
** Current wind speed in m/s (hover to see current wind gust speed)